createdAt,value
2018-08-04T00:02:32.981Z,44.99
2018-08-04T00:07:37.295Z,44.14
2018-08-04T00:12:41.028Z,44.14
2018-08-04T00:17:44.874Z,44.48
2018-08-04T00:22:48.872Z,44.24
2018-08-04T00:27:52.389Z,43.21
2018-08-04T00:32:56.142Z,43.42
2018-08-04T00:37:59.735Z,42.77
2018-08-04T00:43:03.325Z,42.56
2018-08-04T00:48:06.852Z,43.10
2018-08-04T00:53:10.406Z,43.03
2018-08-04T00:58:14.040Z,42.10
2018-08-04T01:03:17.954Z,41.89
2018-08-04T01:08:21.834Z,41.90
2018-08-04T01:13:25.670Z,41.89
2018-08-04T01:18:30.114Z,41.27
2018-08-04T01:23:33.939Z,41.19
2018-08-04T01:28:37.549Z,41.42
2018-08-04T01:33:41.129Z,41.78
2018-08-04T01:38:46.807Z,41.32
2018-08-04T01:43:50.321Z,42.11
2018-08-04T01:48:54.084Z,42.09
2018-08-04T01:53:57.777Z,42.08
2018-08-04T01:59:01.367Z,42.51
2018-08-04T02:04:04.925Z,42.97
2018-08-04T02:09:10.381Z,43.57
2018-08-04T02:14:14.441Z,43.51
2018-08-04T02:19:18.002Z,43.09
2018-08-04T02:24:21.561Z,42.61
2018-08-04T02:29:25.234Z,42.45
2018-08-04T02:34:28.751Z,43.25
2018-08-04T02:39:32.497Z,44.57
2018-08-04T02:44:36.812Z,44.60
2018-08-04T02:49:40.358Z,44.87
2018-08-04T02:54:43.928Z,44.76
2018-08-04T02:59:47.501Z,44.43
2018-08-04T03:04:51.028Z,45.11
2018-08-04T03:09:54.568Z,46.18
2018-08-04T03:14:58.106Z,46.62
2018-08-04T03:20:03.895Z,46.30
2018-08-04T03:25:08.008Z,46.59
2018-08-04T03:30:14.346Z,47.64
2018-08-04T03:35:18.075Z,47.44
2018-08-04T03:40:22.985Z,47.84
2018-08-04T03:45:26.602Z,47.94
2018-08-04T03:50:30.207Z,48.78
2018-08-04T03:55:33.769Z,48.72
2018-08-04T04:00:37.344Z,48.35
2018-08-04T04:05:41.269Z,48.08
2018-08-04T04:10:44.882Z,48.33
2018-08-04T04:15:48.473Z,48.88
2018-08-04T04:20:51.985Z,48.93
2018-08-04T04:25:55.524Z,49.29
2018-08-04T04:30:59.172Z,48.33
2018-08-04T04:36:02.958Z,48.44
2018-08-04T04:41:06.973Z,49.22
2018-08-04T04:46:10.913Z,49.02
2018-08-04T04:51:15.216Z,49.09
2018-08-04T04:56:18.798Z,48.60
2018-08-04T05:01:22.340Z,48.30
2018-08-04T05:06:25.878Z,48.52
2018-08-04T05:11:29.434Z,49.04
2018-08-04T05:16:33.011Z,49.10
2018-08-04T05:21:36.836Z,48.81
2018-08-04T05:26:40.525Z,48.86
2018-08-04T05:31:44.965Z,50.07
2018-08-04T05:36:48.414Z,48.95
2018-08-04T05:41:51.994Z,48.48
2018-08-04T05:46:55.657Z,48.63
2018-08-04T05:52:00.134Z,48.61
2018-08-04T05:57:03.764Z,47.76
2018-08-04T06:02:07.767Z,47.12
2018-08-04T06:07:11.263Z,46.87
2018-08-04T06:12:15.670Z,46.72
2018-08-04T06:17:23.196Z,46.10
2018-08-04T06:22:29.013Z,45.95
2018-08-04T06:27:37.153Z,45.74
2018-08-04T06:32:41.982Z,46.12
2018-08-04T06:37:47.836Z,47.19
2018-08-04T06:42:53.639Z,47.48
2018-08-04T06:47:58.144Z,47.76
2018-08-04T06:53:04.986Z,47.71
2018-08-04T06:58:10.101Z,47.34
2018-08-04T07:03:16.640Z,46.71
2018-08-04T07:08:20.306Z,47.49
2018-08-04T07:13:25.066Z,47.28
2018-08-04T07:18:28.877Z,47.01
2018-08-04T07:23:39.765Z,47.54
2018-08-04T07:28:43.354Z,47.40
2018-08-04T07:33:46.881Z,47.72
2018-08-04T07:38:50.470Z,46.87
2018-08-04T07:43:54.802Z,47.70
2018-08-04T07:48:58.777Z,47.38
2018-08-04T07:54:03.706Z,47.40
2018-08-04T07:59:13.516Z,47.35
2018-08-04T08:04:19.626Z,46.89
2018-08-04T08:09:29.087Z,46.78
2018-08-04T08:14:33.605Z,46.26
2018-08-04T08:19:37.202Z,45.83
2018-08-04T08:24:40.882Z,45.35
2018-08-04T08:29:44.517Z,44.93
2018-08-04T08:34:48.450Z,44.72
2018-08-04T08:39:52.117Z,43.96
2018-08-04T08:44:55.742Z,43.10
2018-08-04T08:49:59.281Z,43.35
2018-08-04T08:55:10.033Z,42.29
2018-08-04T09:00:14.679Z,43.27
2018-08-04T09:05:24.781Z,42.12
2018-08-04T09:10:28.398Z,41.11
2018-08-04T09:15:32.092Z,41.04
2018-08-04T09:20:36.334Z,40.90
2018-08-04T09:25:40.686Z,40.01
2018-08-04T09:30:45.729Z,40.11
2018-08-04T09:35:49.203Z,41.03
2018-08-04T09:40:52.710Z,39.94
2018-08-04T09:45:56.322Z,39.22
2018-08-04T09:50:59.842Z,38.90
2018-08-04T09:56:03.393Z,37.94
2018-08-04T10:01:12.779Z,39.16
2018-08-04T10:06:16.666Z,38.36
2018-08-04T10:11:26.335Z,38.17
2018-08-04T10:16:30.050Z,37.26
2018-08-04T10:21:34.495Z,36.47
2018-08-04T10:26:38.850Z,35.88
2018-08-04T10:31:53.470Z,36.37
2018-08-04T10:36:58.206Z,35.52
2018-08-04T10:42:02.402Z,34.30
2018-08-04T10:47:07.123Z,34.16
2018-08-04T10:52:11.314Z,33.61
2018-08-04T10:57:18.930Z,33.31
2018-08-04T11:08:04.083Z,33.21
2018-08-04T11:13:09.323Z,32.51
2018-08-04T11:18:17.825Z,33.42
2018-08-04T11:23:23.473Z,31.75
2018-08-04T11:28:27.445Z,31.80
2018-08-04T11:44:55.322Z,29.47
2018-08-04T11:49:59.349Z,29.72
2018-08-04T11:55:06.224Z,28.51
2018-08-04T12:00:10.535Z,24.58
2018-08-04T12:05:14.685Z,22.85
2018-08-04T12:10:18.642Z,22.35
2018-08-04T12:15:23.845Z,20.70
2018-08-04T12:20:27.756Z,19.52
2018-08-04T12:25:31.568Z,22.09
2018-08-04T12:30:35.252Z,25.59
2018-08-04T12:35:39.181Z,26.33
2018-08-04T12:40:42.838Z,26.30
2018-08-04T12:45:47.008Z,25.18
2018-08-04T12:50:51.173Z,27.00
2018-08-04T12:55:55.041Z,27.32
2018-08-04T13:00:58.759Z,27.96
2018-08-04T13:06:03.033Z,28.71
2018-08-04T13:11:06.869Z,28.77
2018-08-04T13:16:10.402Z,27.35
2018-08-04T13:21:14.258Z,26.66
2018-08-04T13:26:18.930Z,26.30
2018-08-04T13:31:22.693Z,26.05
2018-08-04T13:36:26.180Z,27.13
2018-08-04T13:41:30.618Z,28.01
2018-08-04T13:46:34.385Z,28.63
2018-08-04T13:51:38.554Z,28.61
2018-08-04T13:56:42.211Z,29.47
2018-08-04T14:01:45.915Z,29.76
2018-08-04T14:06:49.567Z,29.22
2018-08-04T14:11:53.046Z,28.86
2018-08-04T14:16:56.593Z,29.85
2018-08-04T14:22:00.187Z,29.31
2018-08-04T14:27:03.737Z,29.54
2018-08-04T14:32:07.324Z,29.03
2018-08-04T14:37:11.206Z,30.55
2018-08-04T14:42:14.939Z,29.61
2018-08-04T14:47:18.561Z,30.36
2018-08-04T14:52:22.168Z,30.89
2018-08-04T14:57:25.889Z,29.74
2018-08-04T15:02:29.854Z,28.13
2018-08-04T15:07:33.790Z,25.98
2018-08-04T15:12:38.191Z,25.58
2018-08-04T15:17:42.415Z,24.84
2018-08-04T15:22:47.242Z,24.70
2018-08-04T15:27:53.424Z,23.53
2018-08-04T15:32:57.446Z,22.50
2018-08-04T15:38:01.107Z,21.15
2018-08-04T15:43:04.824Z,21.85
2018-08-04T15:48:09.456Z,21.73
2018-08-04T15:53:13.743Z,21.66
2018-08-04T15:58:19.136Z,22.00
2018-08-04T16:03:22.915Z,22.33
2018-08-04T16:08:26.531Z,19.94
2018-08-04T16:13:30.518Z,17.23
2018-08-04T16:18:34.013Z,16.14
2018-08-04T16:23:37.964Z,15.51
2018-08-04T16:28:41.851Z,15.05
2018-08-04T16:33:45.596Z,16.06
2018-08-04T16:38:49.213Z,20.53
2018-08-04T16:43:52.831Z,22.13
2018-08-04T16:48:56.741Z,21.55
2018-08-04T16:54:00.607Z,23.30
2018-08-04T16:59:04.163Z,23.36
2018-08-04T17:04:08.098Z,21.50
2018-08-04T17:09:13.153Z,22.70
2018-08-04T17:14:16.825Z,22.55
2018-08-04T17:19:20.483Z,22.53
2018-08-04T17:24:24.398Z,21.05
2018-08-04T17:29:28.386Z,21.87
2018-08-04T17:34:32.850Z,23.64
2018-08-04T17:39:36.481Z,23.55
2018-08-04T17:44:40.068Z,22.99
2018-08-04T17:49:44.587Z,22.57
2018-08-04T17:54:48.303Z,25.09
2018-08-04T17:59:52.107Z,25.58
2018-08-04T18:04:55.925Z,26.78
2018-08-04T18:09:59.473Z,27.04
2018-08-04T18:15:08.854Z,28.02
2018-08-04T18:20:12.850Z,28.68
2018-08-04T18:25:16.467Z,28.58
2018-08-04T18:30:20.031Z,29.58
2018-08-04T18:35:23.498Z,30.13
2018-08-04T18:40:27.148Z,31.19
2018-08-04T18:45:30.686Z,31.32
2018-08-04T18:50:34.505Z,31.26
2018-08-04T18:55:38.007Z,31.86
2018-08-04T19:00:41.566Z,31.83
2018-08-04T19:05:45.046Z,32.88
2018-08-04T19:10:48.722Z,33.22
2018-08-04T19:15:52.218Z,33.61
2018-08-04T19:20:56.006Z,34.18
2018-08-04T19:25:59.895Z,34.74
2018-08-04T19:31:03.529Z,35.23
2018-08-04T19:36:07.068Z,35.27
2018-08-04T19:41:10.863Z,35.53
2018-08-04T19:46:14.930Z,35.91
2018-08-04T19:51:18.530Z,35.81
2018-08-04T19:56:22.971Z,36.41
2018-08-04T20:01:26.410Z,36.47
2018-08-04T20:06:30.106Z,36.94
2018-08-04T20:11:33.701Z,37.41
2018-08-04T20:16:37.282Z,37.52
2018-08-04T20:21:40.825Z,38.51
2018-08-04T20:26:44.398Z,38.79
2018-08-04T20:31:48.028Z,38.19
2018-08-04T20:36:51.568Z,39.36
2018-08-04T20:41:55.068Z,38.79
2018-08-04T20:46:58.590Z,39.09
2018-08-04T20:52:02.184Z,39.52
2018-08-04T20:57:05.802Z,39.37
2018-08-04T21:02:09.371Z,39.46
2018-08-04T21:07:13.275Z,39.72
2018-08-04T21:12:16.722Z,40.05
2018-08-04T21:17:20.930Z,40.59
2018-08-04T21:22:24.386Z,39.97
2018-08-04T21:27:28.423Z,40.62
2018-08-04T21:32:31.990Z,40.95
2018-08-04T21:37:35.490Z,40.46
2018-08-04T21:42:39.061Z,40.30
2018-08-04T21:47:42.645Z,40.62
2018-08-04T21:52:46.290Z,41.28
2018-08-04T21:57:49.800Z,41.90
2018-08-04T22:02:59.583Z,41.65
2018-08-04T22:08:14.238Z,42.39
2018-08-04T22:13:17.709Z,41.83
2018-08-04T22:18:21.329Z,42.96
2018-08-04T22:23:24.939Z,42.68
2018-08-04T22:28:28.511Z,43.16
2018-08-04T22:33:32.065Z,43.51
2018-08-04T22:38:35.631Z,44.24
2018-08-04T22:43:39.182Z,43.73
2018-08-04T22:48:44.985Z,44.40
2018-08-04T22:53:48.708Z,44.42
2018-08-04T22:58:52.216Z,45.29
2018-08-04T23:03:55.850Z,45.43
2018-08-04T23:08:59.390Z,45.24
2018-08-04T23:14:02.883Z,45.92
2018-08-04T23:19:07.075Z,46.45
2018-08-04T23:24:10.589Z,46.23
2018-08-04T23:29:15.334Z,45.70
2018-08-04T23:34:18.817Z,46.17
2018-08-04T23:39:22.391Z,45.97
2018-08-04T23:44:25.953Z,46.52
2018-08-04T23:49:29.483Z,46.45
2018-08-04T23:54:32.991Z,46.22
2018-08-04T23:59:36.530Z,46.29
